sensor_id;sensor_type;location;lat;lon;timestamp;pressure;altitude;pressure_sealevel;temperature;humidity
51261;BME280;61705;46.228;24.812;2023-02-20T00:02:02;97468.88;;;4.39;91.50
51261;BME280;61705;46.228;24.812;2023-02-20T00:04:34;97477.25;;;4.18;91.43
51261;BME280;61705;46.228;24.812;2023-02-20T00:07:03;97484.41;;;4.10;91.64
51261;BME280;61705;46.228;24.812;2023-02-20T00:09:29;97484.44;;;4.08;91.92
51261;BME280;61705;46.228;24.812;2023-02-20T00:11:56;97493.81;;;4.18;91.43
51261;BME280;61705;46.228;24.812;2023-02-20T00:14:25;97505.25;;;4.13;91.23
51261;BME280;61705;46.228;24.812;2023-02-20T00:16:52;97514.00;;;4.10;90.76
51261;BME280;61705;46.228;24.812;2023-02-20T00:19:18;97516.00;;;3.99;90.94
51261;BME280;61705;46.228;24.812;2023-02-20T00:21:46;97531.31;;;3.75;90.38
51261;BME280;61705;46.228;24.812;2023-02-20T00:24:15;97547.41;;;3.55;90.93
51261;BME280;61705;46.228;24.812;2023-02-20T00:26:47;97544.34;;;3.35;91.19
51261;BME280;61705;46.228;24.812;2023-02-20T00:29:19;97555.22;;;3.11;91.10
51261;BME280;61705;46.228;24.812;2023-02-20T00:31:54;97555.34;;;3.03;91.29
51261;BME280;61705;46.228;24.812;2023-02-20T00:34:25;97575.19;;;2.60;91.81
51261;BME280;61705;46.228;24.812;2023-02-20T00:36:52;97573.31;;;2.69;91.98
51261;BME280;61705;46.228;24.812;2023-02-20T00:39:19;97562.19;;;2.57;92.13
51261;BME280;61705;46.228;24.812;2023-02-20T00:41:49;97567.44;;;2.56;92.70
51261;BME280;61705;46.228;24.812;2023-02-20T00:44:19;97558.63;;;2.63;92.68
51261;BME280;61705;46.228;24.812;2023-02-20T00:46:46;97555.97;;;2.68;92.67
51261;BME280;61705;46.228;24.812;2023-02-20T00:49:18;97562.75;;;2.76;92.67
51261;BME280;61705;46.228;24.812;2023-02-20T00:51:50;97555.63;;;2.86;92.48
51261;BME280;61705;46.228;24.812;2023-02-20T00:54:17;97556.50;;;2.87;92.48
51261;BME280;61705;46.228;24.812;2023-02-20T00:56:43;97554.03;;;2.79;92.67
51261;BME280;61705;46.228;24.812;2023-02-20T00:59:10;97561.00;;;2.77;92.97
51261;BME280;61705;46.228;24.812;2023-02-20T01:01:39;97575.03;;;2.71;93.44
51261;BME280;61705;46.228;24.812;2023-02-20T01:04:06;97581.88;;;2.77;93.00
51261;BME280;61705;46.228;24.812;2023-02-20T01:06:32;97590.47;;;2.83;93.03
51261;BME280;61705;46.228;24.812;2023-02-20T01:09:01;97593.25;;;2.74;92.42
51261;BME280;61705;46.228;24.812;2023-02-20T01:11:31;97591.50;;;2.75;91.50
51261;BME280;61705;46.228;24.812;2023-02-20T01:14:00;97601.88;;;2.76;89.87
51261;BME280;61705;46.228;24.812;2023-02-20T01:16:29;97612.56;;;2.61;89.93
51261;BME280;61705;46.228;24.812;2023-02-20T01:19:00;97624.06;;;2.48;90.70
51261;BME280;61705;46.228;24.812;2023-02-20T01:21:29;97621.44;;;2.49;90.31
51261;BME280;61705;46.228;24.812;2023-02-20T01:23:55;97623.94;;;2.57;90.00
51261;BME280;61705;46.228;24.812;2023-02-20T01:26:22;97614.53;;;2.47;90.13
51261;BME280;61705;46.228;24.812;2023-02-20T01:28:49;97617.16;;;2.45;89.94
51261;BME280;61705;46.228;24.812;2023-02-20T01:31:17;97617.09;;;2.48;89.50
51261;BME280;61705;46.228;24.812;2023-02-20T01:33:47;97622.47;;;2.37;89.24
51261;BME280;61705;46.228;24.812;2023-02-20T01:36:14;97628.56;;;2.38;89.13
51261;BME280;61705;46.228;24.812;2023-02-20T01:38:44;97625.97;;;2.36;88.33
51261;BME280;61705;46.228;24.812;2023-02-20T01:41:11;97631.22;;;2.32;87.77
51261;BME280;61705;46.228;24.812;2023-02-20T01:43:40;97623.44;;;2.29;87.36
51261;BME280;61705;46.228;24.812;2023-02-20T01:48:58;97633.84;;;2.33;86.06
51261;BME280;61705;46.228;24.812;2023-02-20T01:51:37;97644.28;;;2.33;85.50
51261;BME280;61705;46.228;24.812;2023-02-20T01:54:11;97644.38;;;2.26;85.36
51261;BME280;61705;46.228;24.812;2023-02-20T01:56:44;97650.47;;;2.22;85.61
51261;BME280;61705;46.228;24.812;2023-02-20T01:59:14;97653.97;;;2.21;85.63
51261;BME280;61705;46.228;24.812;2023-02-20T02:01:42;97661.78;;;2.22;85.54
51261;BME280;61705;46.228;24.812;2023-02-20T02:04:12;97673.22;;;2.12;85.43
51261;BME280;61705;46.228;24.812;2023-02-20T02:06:42;97677.53;;;2.13;85.65
51261;BME280;61705;46.228;24.812;2023-02-20T02:09:23;97682.84;;;2.04;85.44
51261;BME280;61705;46.228;24.812;2023-02-20T02:11:54;97682.88;;;2.02;85.76
51261;BME280;61705;46.228;24.812;2023-02-20T02:14:21;97685.31;;;2.18;85.03
51261;BME280;61705;46.228;24.812;2023-02-20T02:42:22;97707.19;;;2.03;81.18
51261;BME280;61705;46.228;24.812;2023-02-20T02:45:06;97709.94;;;1.90;80.54
51261;BME280;61705;46.228;24.812;2023-02-20T02:47:55;97698.81;;;1.75;80.73
51261;BME280;61705;46.228;24.812;2023-02-20T02:50:39;97709.19;;;1.78;80.74
51261;BME280;61705;46.228;24.812;2023-02-20T02:53:11;97703.91;;;1.84;80.23
51261;BME280;61705;46.228;24.812;2023-02-20T02:55:41;97726.59;;;1.74;80.14
51261;BME280;61705;46.228;24.812;2023-02-20T02:58:09;97723.22;;;1.68;79.95
51261;BME280;61705;46.228;24.812;2023-02-20T03:00:43;97735.47;;;1.55;80.42
51261;BME280;61705;46.228;24.812;2023-02-20T03:03:18;97742.38;;;1.59;80.17
51261;BME280;61705;46.228;24.812;2023-02-20T03:06:08;97763.97;;;1.72;79.12
51261;BME280;61705;46.228;24.812;2023-02-20T03:11:31;97748.59;;;1.41;78.45
51261;BME280;61705;46.228;24.812;2023-02-20T03:14:03;97745.94;;;1.49;78.33
51261;BME280;61705;46.228;24.812;2023-02-20T03:19:45;97759.88;;;1.40;77.28
51261;BME280;61705;46.228;24.812;2023-02-20T03:25:10;97761.72;;;1.30;77.25
51261;BME280;61705;46.228;24.812;2023-02-20T03:28:00;97765.22;;;1.25;76.75
51261;BME280;61705;46.228;24.812;2023-02-20T03:36:17;97774.03;;;1.01;76.20
51261;BME280;61705;46.228;24.812;2023-02-20T03:39:22;97774.09;;;0.96;76.52
51261;BME280;61705;46.228;24.812;2023-02-20T03:42:11;97783.59;;;1.03;75.93
51261;BME280;61705;46.228;24.812;2023-02-20T03:45:00;97786.28;;;0.86;76.03
51261;BME280;61705;46.228;24.812;2023-02-20T03:47:36;97787.97;;;0.90;75.79
51261;BME280;61705;46.228;24.812;2023-02-20T03:50:08;97775.81;;;0.94;74.70
51261;BME280;61705;46.228;24.812;2023-02-20T03:52:39;97786.28;;;0.83;74.77
51261;BME280;61705;46.228;24.812;2023-02-20T03:55:09;97781.13;;;0.76;74.96
51261;BME280;61705;46.228;24.812;2023-02-20T03:57:40;97787.13;;;0.87;73.43
51261;BME280;61705;46.228;24.812;2023-02-20T04:00:22;97798.50;;;0.64;74.13
51261;BME280;61705;46.228;24.812;2023-02-20T04:03:00;97810.66;;;0.62;74.44
51261;BME280;61705;46.228;24.812;2023-02-20T04:05:35;97794.22;;;0.56;74.89
51261;BME280;61705;46.228;24.812;2023-02-20T04:08:28;97800.34;;;0.36;74.81
51261;BME280;61705;46.228;24.812;2023-02-20T04:11:13;97808.09;;;0.44;75.43
51261;BME280;61705;46.228;24.812;2023-02-20T04:13:41;97824.59;;;0.38;75.35
51261;BME280;61705;46.228;24.812;2023-02-20T04:16:10;97806.41;;;0.40;75.60
51261;BME280;61705;46.228;24.812;2023-02-20T04:18:40;97818.56;;;0.35;75.22
51261;BME280;61705;46.228;24.812;2023-02-20T04:24:02;97813.28;;;0.56;73.37
51261;BME280;61705;46.228;24.812;2023-02-20T04:26:33;97816.72;;;0.61;72.18
51261;BME280;61705;46.228;24.812;2023-02-20T04:29:00;97825.41;;;0.62;71.84
51261;BME280;61705;46.228;24.812;2023-02-20T04:31:30;97828.00;;;0.57;71.79
51261;BME280;61705;46.228;24.812;2023-02-20T04:33:57;97850.50;;;0.61;71.41
51261;BME280;61705;46.228;24.812;2023-02-20T04:36:29;97847.06;;;0.68;71.14
51261;BME280;61705;46.228;24.812;2023-02-20T04:38:58;97865.28;;;0.59;71.62
51261;BME280;61705;46.228;24.812;2023-02-20T04:41:27;97857.50;;;0.47;71.96
51261;BME280;61705;46.228;24.812;2023-02-20T04:43:54;97867.03;;;0.46;72.12
51261;BME280;61705;46.228;24.812;2023-02-20T04:46:41;97866.16;;;0.49;72.22
51261;BME280;61705;46.228;24.812;2023-02-20T04:49:07;97868.75;;;0.44;72.18
51261;BME280;61705;46.228;24.812;2023-02-20T04:51:37;97871.38;;;0.49;71.50
51261;BME280;61705;46.228;24.812;2023-02-20T04:54:06;97869.59;;;0.51;71.45
51261;BME280;61705;46.228;24.812;2023-02-20T04:56:35;97857.50;;;0.49;71.39
51261;BME280;61705;46.228;24.812;2023-02-20T04:59:04;97868.75;;;0.57;70.99
51261;BME280;61705;46.228;24.812;2023-02-20T05:01:31;97882.59;;;0.60;70.61
51261;BME280;61705;46.228;24.812;2023-02-20T05:03:59;97886.94;;;0.57;70.46
51261;BME280;61705;46.228;24.812;2023-02-20T05:06:25;97890.41;;;0.57;70.66
51261;BME280;61705;46.228;24.812;2023-02-20T05:08:55;97894.75;;;0.52;70.66
51261;BME280;61705;46.228;24.812;2023-02-20T05:11:22;97891.31;;;0.49;71.17
51261;BME280;61705;46.228;24.812;2023-02-20T05:13:49;97900.81;;;0.50;71.12
51261;BME280;61705;46.228;24.812;2023-02-20T05:16:15;97900.81;;;0.53;71.02
51261;BME280;61705;46.228;24.812;2023-02-20T05:18:42;97910.31;;;0.61;70.82
51261;BME280;61705;46.228;24.812;2023-02-20T05:21:13;97911.19;;;0.63;70.52
51261;BME280;61705;46.228;24.812;2023-02-20T05:24:01;97925.97;;;0.52;71.09
51261;BME280;61705;46.228;24.812;2023-02-20T05:26:36;97923.34;;;0.54;71.05
51261;BME280;61705;46.228;24.812;2023-02-20T05:29:03;97932.03;;;0.53;71.31
51261;BME280;61705;46.228;24.812;2023-02-20T05:31:30;97936.34;;;0.60;71.07
51261;BME280;61705;46.228;24.812;2023-02-20T05:34:03;97946.72;;;0.61;71.17
51261;BME280;61705;46.228;24.812;2023-02-20T05:36:30;97955.38;;;0.68;70.92
51261;BME280;61705;46.228;24.812;2023-02-20T05:38:59;97962.34;;;0.63;70.96
51261;BME280;61705;46.228;24.812;2023-02-20T05:41:29;97981.41;;;0.73;70.81
51261;BME280;61705;46.228;24.812;2023-02-20T05:44:00;97977.94;;;0.72;70.79
51261;BME280;61705;46.228;24.812;2023-02-20T05:46:29;97989.19;;;0.73;70.90
51261;BME280;61705;46.228;24.812;2023-02-20T05:48:59;97986.56;;;0.85;70.56
51261;BME280;61705;46.228;24.812;2023-02-20T05:51:28;97986.56;;;0.89;69.97
51261;BME280;61705;46.228;24.812;2023-02-20T05:54:02;97997.81;;;0.91;70.40
51261;BME280;61705;46.228;24.812;2023-02-20T05:56:32;97993.50;;;0.90;70.51
51261;BME280;61705;46.228;24.812;2023-02-20T05:59:01;98009.09;;;0.89;70.76
51261;BME280;61705;46.228;24.812;2023-02-20T06:01:30;98013.44;;;0.96;70.84
51261;BME280;61705;46.228;24.812;2023-02-20T06:03:57;98011.72;;;0.86;71.08
51261;BME280;61705;46.228;24.812;2023-02-20T06:06:36;98021.25;;;0.88;71.41
51261;BME280;61705;46.228;24.812;2023-02-20T06:09:08;98025.56;;;0.91;71.70
51261;BME280;61705;46.228;24.812;2023-02-20T06:11:46;98037.72;;;0.95;71.74
51261;BME280;61705;46.228;24.812;2023-02-20T06:14:23;98059.38;;;0.95;71.61
51261;BME280;61705;46.228;24.812;2023-02-20T06:16:55;98060.25;;;1.05;71.21
51261;BME280;61705;46.228;24.812;2023-02-20T06:19:28;98063.72;;;0.95;70.71
51261;BME280;61705;46.228;24.812;2023-02-20T06:21:57;98061.09;;;1.06;71.35
51261;BME280;61705;46.228;24.812;2023-02-20T06:24:30;98081.06;;;1.11;70.97
51261;BME280;61705;46.228;24.812;2023-02-20T06:26:59;98072.38;;;1.15;70.47
51261;BME280;61705;46.228;24.812;2023-02-20T06:29:26;98081.03;;;1.16;70.35
51261;BME280;61705;46.228;24.812;2023-02-20T06:31:57;98077.56;;;1.22;70.15
51261;BME280;61705;46.228;24.812;2023-02-20T06:34:24;98079.28;;;1.19;70.04
51261;BME280;61705;46.228;24.812;2023-02-20T06:37:00;98089.72;;;1.27;70.70
51261;BME280;61705;46.228;24.812;2023-02-20T06:39:29;98087.97;;;1.32;70.11
51261;BME280;61705;46.228;24.812;2023-02-20T06:41:57;98089.69;;;1.38;69.79
51261;BME280;61705;46.228;24.812;2023-02-20T06:44:24;98090.56;;;1.26;70.22
51261;BME280;61705;46.228;24.812;2023-02-20T06:46:51;98095.75;;;1.38;70.23
51261;BME280;61705;46.228;24.812;2023-02-20T06:49:21;98099.22;;;1.42;69.95
51261;BME280;61705;46.228;24.812;2023-02-20T06:51:54;98094.88;;;1.46;69.87
51261;BME280;61705;46.228;24.812;2023-02-20T06:54:21;98091.38;;;1.53;68.90
51261;BME280;61705;46.228;24.812;2023-02-20T06:57:14;98090.53;;;1.51;69.10
51261;BME280;61705;46.228;24.812;2023-02-20T06:59:46;98105.28;;;1.55;68.92
51261;BME280;61705;46.228;24.812;2023-02-20T07:02:20;98105.25;;;1.62;68.31
51261;BME280;61705;46.228;24.812;2023-02-20T07:04:49;98110.41;;;1.70;68.37
51261;BME280;61705;46.228;24.812;2023-02-20T07:07:16;98111.28;;;1.72;67.96
51261;BME280;61705;46.228;24.812;2023-02-20T07:09:46;98115.63;;;1.75;67.41
51261;BME280;61705;46.228;24.812;2023-02-20T07:12:13;98117.34;;;1.80;68.16
51261;BME280;61705;46.228;24.812;2023-02-20T07:14:44;98121.66;;;1.84;67.57
51261;BME280;61705;46.228;24.812;2023-02-20T07:17:13;98125.13;;;1.88;67.72
51261;BME280;61705;46.228;24.812;2023-02-20T07:19:43;98145.94;;;1.91;67.14
51261;BME280;61705;46.228;24.812;2023-02-20T07:22:10;98142.50;;;1.92;66.74
51261;BME280;61705;46.228;24.812;2023-02-20T07:24:42;98137.28;;;1.89;66.62
51261;BME280;61705;46.228;24.812;2023-02-20T07:27:09;98137.28;;;1.92;66.88
51261;BME280;61705;46.228;24.812;2023-02-20T07:29:44;98138.19;;;1.85;66.72
51261;BME280;61705;46.228;24.812;2023-02-20T07:32:11;98122.56;;;1.76;66.41
51261;BME280;61705;46.228;24.812;2023-02-20T07:34:42;98134.75;;;1.72;66.52
51261;BME280;61705;46.228;24.812;2023-02-20T07:37:26;98143.44;;;1.60;66.58
51261;BME280;61705;46.228;24.812;2023-02-20T07:39:53;98154.72;;;1.56;66.68
51261;BME280;61705;46.228;24.812;2023-02-20T07:42:21;98159.09;;;1.51;67.23
51261;BME280;61705;46.228;24.812;2023-02-20T07:44:51;98162.56;;;1.52;66.73
51261;BME280;61705;46.228;24.812;2023-02-20T07:47:17;98175.59;;;1.55;66.39
51261;BME280;61705;46.228;24.812;2023-02-20T07:49:44;98168.63;;;1.58;66.20
51261;BME280;61705;46.228;24.812;2023-02-20T07:52:11;98170.34;;;1.65;66.37
51261;BME280;61705;46.228;24.812;2023-02-20T07:54:38;98165.16;;;1.58;65.65
51261;BME280;61705;46.228;24.812;2023-02-20T07:57:15;98174.69;;;1.71;66.41
51261;BME280;61705;46.228;24.812;2023-02-20T08:00:04;98175.50;;;1.81;65.69
51261;BME280;61705;46.228;24.812;2023-02-20T08:02:36;98178.13;;;1.85;64.99
51261;BME280;61705;46.228;24.812;2023-02-20T08:05:04;98184.16;;;1.94;65.64
51261;BME280;61705;46.228;24.812;2023-02-20T08:07:36;98170.25;;;1.95;64.62
51261;BME280;61705;46.228;24.812;2023-02-20T08:10:15;98175.47;;;1.98;64.18
51261;BME280;61705;46.228;24.812;2023-02-20T08:12:42;98187.63;;;1.97;64.09
51261;BME280;61705;46.228;24.812;2023-02-20T08:15:08;98198.91;;;1.98;63.93
51261;BME280;61705;46.228;24.812;2023-02-20T08:17:41;98182.47;;;1.86;64.26
51261;BME280;61705;46.228;24.812;2023-02-20T08:20:16;98182.41;;;1.97;63.81
51261;BME280;61705;46.228;24.812;2023-02-20T08:22:44;98175.47;;;2.02;63.39
51261;BME280;61705;46.228;24.812;2023-02-20T08:25:12;98171.94;;;2.11;63.56
51261;BME280;61705;46.228;24.812;2023-02-20T08:27:44;98180.63;;;2.19;63.47
51261;BME280;61705;46.228;24.812;2023-02-20T08:30:15;98166.69;;;2.23;62.93
51261;BME280;61705;46.228;24.812;2023-02-20T08:32:43;98171.00;;;2.29;62.52
51261;BME280;61705;46.228;24.812;2023-02-20T08:35:10;98166.63;;;2.34;61.80
51261;BME280;61705;46.228;24.812;2023-02-20T08:37:37;98178.75;;;2.44;61.21
51261;BME280;61705;46.228;24.812;2023-02-20T08:40:03;98174.41;;;2.46;60.77
51261;BME280;61705;46.228;24.812;2023-02-20T08:42:33;98171.75;;;2.52;60.29
51261;BME280;61705;46.228;24.812;2023-02-20T08:45:02;98160.44;;;2.56;59.83
51261;BME280;61705;46.228;24.812;2023-02-20T08:47:29;98165.63;;;2.58;59.75
51261;BME280;61705;46.228;24.812;2023-02-20T08:49:56;98171.66;;;2.66;59.63
51261;BME280;61705;46.228;24.812;2023-02-20T08:52:23;98171.72;;;2.61;59.66
51261;BME280;61705;46.228;24.812;2023-02-20T08:54:49;98169.09;;;2.61;58.86
51261;BME280;61705;46.228;24.812;2023-02-20T08:57:17;98169.88;;;2.76;59.65
51261;BME280;61705;46.228;24.812;2023-02-20T08:59:44;98164.59;;;2.83;58.69
51261;BME280;61705;46.228;24.812;2023-02-20T09:02:20;98159.34;;;2.87;57.65
51261;BME280;61705;46.228;24.812;2023-02-20T09:04:47;98163.66;;;2.94;57.98
51261;BME280;61705;46.228;24.812;2023-02-20T09:07:14;98149.72;;;2.98;56.95
51261;BME280;61705;46.228;24.812;2023-02-20T09:09:41;98147.09;;;2.96;56.80
51261;BME280;61705;46.228;24.812;2023-02-20T09:12:08;98138.38;;;3.00;57.24
51261;BME280;61705;46.228;24.812;2023-02-20T09:14:35;98143.50;;;3.11;57.14
51261;BME280;61705;46.228;24.812;2023-02-20T09:17:02;98141.75;;;3.15;56.54
51261;BME280;61705;46.228;24.812;2023-02-20T09:19:29;98140.81;;;3.22;54.99
51261;BME280;61705;46.228;24.812;2023-02-20T09:21:56;98141.66;;;3.25;54.77
51261;BME280;61705;46.228;24.812;2023-02-20T09:24:23;98145.13;;;3.24;53.64
51261;BME280;61705;46.228;24.812;2023-02-20T09:26:50;98132.84;;;3.36;54.03
51261;BME280;61705;46.228;24.812;2023-02-20T09:29:16;98138.00;;;3.42;54.17
51261;BME280;61705;46.228;24.812;2023-02-20T09:31:43;98125.81;;;3.45;53.94
51261;BME280;61705;46.228;24.812;2023-02-20T09:34:10;98130.97;;;3.48;53.61
51261;BME280;61705;46.228;24.812;2023-02-20T09:36:36;98130.03;;;3.57;52.76
51261;BME280;61705;46.228;24.812;2023-02-20T09:39:03;98125.72;;;3.51;52.12
51261;BME280;61705;46.228;24.812;2023-02-20T09:46:44;98131.78;;;3.56;51.96
51261;BME280;61705;46.228;24.812;2023-02-20T09:49:14;98116.06;;;3.58;51.99
51261;BME280;61705;46.228;24.812;2023-02-20T09:51:51;98119.53;;;3.59;50.62
51261;BME280;61705;46.228;24.812;2023-02-20T09:54:32;98109.97;;;3.59;49.44
51261;BME280;61705;46.228;24.812;2023-02-20T09:57:08;98108.19;;;3.61;49.38
51261;BME280;61705;46.228;24.812;2023-02-20T09:59:49;98104.69;;;3.64;50.34
51261;BME280;61705;46.228;24.812;2023-02-20T10:04:55;98100.31;;;3.66;50.51
51261;BME280;61705;46.228;24.812;2023-02-20T10:07:31;98094.16;;;3.73;50.26
51261;BME280;61705;46.228;24.812;2023-02-20T10:10:30;98092.56;;;3.58;49.91
51261;BME280;61705;46.228;24.812;2023-02-20T10:13:41;98090.59;;;3.80;50.98
51261;BME280;61705;46.228;24.812;2023-02-20T10:18:59;98074.69;;;3.97;49.45
51261;BME280;61705;46.228;24.812;2023-02-20T10:27:08;98062.41;;;4.02;49.35
51261;BME280;61705;46.228;24.812;2023-02-20T10:29:43;98058.94;;;4.00;49.19
51261;BME280;61705;46.228;24.812;2023-02-20T10:32:28;98055.41;;;4.04;48.48
51261;BME280;61705;46.228;24.812;2023-02-20T10:35:02;98038.09;;;3.97;49.06
51261;BME280;61705;46.228;24.812;2023-02-20T10:37:43;98041.28;;;4.17;49.20
51261;BME280;61705;46.228;24.812;2023-02-20T10:46:19;98029.13;;;4.13;48.64
51261;BME280;61705;46.228;24.812;2023-02-20T10:49:20;98025.69;;;4.11;49.26
51261;BME280;61705;46.228;24.812;2023-02-20T10:51:51;98033.25;;;4.31;49.44
51261;BME280;61705;46.228;24.812;2023-02-20T10:54:47;98027.06;;;4.35;48.83
51261;BME280;61705;46.228;24.812;2023-02-20T10:57:36;98031.44;;;4.33;48.45
51261;BME280;61705;46.228;24.812;2023-02-20T11:00:18;98021.97;;;4.26;47.87
51261;BME280;61705;46.228;24.812;2023-02-20T11:02:55;98035.84;;;4.31;47.56
51261;BME280;61705;46.228;24.812;2023-02-20T11:05:27;98015.84;;;4.28;48.23
51261;BME280;61705;46.228;24.812;2023-02-20T11:07:59;98014.81;;;4.39;48.52
51261;BME280;61705;46.228;24.812;2023-02-20T11:10:26;98010.56;;;4.32;48.06
51261;BME280;61705;46.228;24.812;2023-02-20T11:12:57;98005.28;;;4.35;48.15
51261;BME280;61705;46.228;24.812;2023-02-20T11:15:32;98005.13;;;4.44;48.12
51261;BME280;61705;46.228;24.812;2023-02-20T11:18:00;98000.75;;;4.46;47.29
51261;BME280;61705;46.228;24.812;2023-02-20T11:23:08;97994.28;;;4.67;48.01
51261;BME280;61705;46.228;24.812;2023-02-20T11:25:37;97990.53;;;4.83;47.00
51261;BME280;61705;46.228;24.812;2023-02-20T11:28:17;97990.53;;;4.83;46.96
51261;BME280;61705;46.228;24.812;2023-02-20T11:30:49;97984.38;;;4.86;46.81
51261;BME280;61705;46.228;24.812;2023-02-20T11:33:20;97980.81;;;4.90;46.46
51261;BME280;61705;46.228;24.812;2023-02-20T11:36:18;97981.44;;;5.03;46.97
51261;BME280;61705;46.228;24.812;2023-02-20T11:38:55;97976.22;;;5.01;47.05
51261;BME280;61705;46.228;24.812;2023-02-20T11:41:33;97979.94;;;4.88;47.10
51261;BME280;61705;46.228;24.812;2023-02-20T11:45:27;97974.56;;;4.97;47.11
51261;BME280;61705;46.228;24.812;2023-02-20T11:48:18;97964.72;;;5.10;46.50
51261;BME280;61705;46.228;24.812;2023-02-20T11:50:51;97965.31;;;5.24;45.89
51261;BME280;61705;46.228;24.812;2023-02-20T11:53:27;97953.19;;;5.18;44.60
51261;BME280;61705;46.228;24.812;2023-02-20T11:56:14;97970.13;;;4.99;44.51
51261;BME280;61705;46.228;24.812;2023-02-20T11:58:49;97959.00;;;4.88;44.07
51261;BME280;61705;46.228;24.812;2023-02-20T12:01:31;97954.94;;;4.71;44.85
51261;BME280;61705;46.228;24.812;2023-02-20T12:04:00;97947.81;;;4.78;45.46
51261;BME280;61705;46.228;24.812;2023-02-20T12:06:42;97951.88;;;4.96;45.86
51261;BME280;61705;46.228;24.812;2023-02-20T12:09:22;97948.22;;;5.06;46.60
51261;BME280;61705;46.228;24.812;2023-02-20T12:14:58;97928.91;;;5.10;46.44
51261;BME280;61705;46.228;24.812;2023-02-20T12:20:26;97912.34;;;5.08;45.21
51261;BME280;61705;46.228;24.812;2023-02-20T12:26:47;97917.34;;;5.20;45.68
51261;BME280;61705;46.228;24.812;2023-02-20T12:32:26;97919.75;;;5.31;45.83
51261;BME280;61705;46.228;24.812;2023-02-20T12:35:34;97904.78;;;5.38;44.59
51261;BME280;61705;46.228;24.812;2023-02-20T12:41:14;97903.06;;;5.35;44.57
51261;BME280;61705;46.228;24.812;2023-02-20T12:49:50;97908.97;;;5.45;45.33
51261;BME280;61705;46.228;24.812;2023-02-20T13:00:53;97894.59;;;5.64;44.17
51261;BME280;61705;46.228;24.812;2023-02-20T13:06:43;97866.69;;;5.62;43.99
51261;BME280;61705;46.228;24.812;2023-02-20T13:11:44;97862.84;;;5.77;44.60
51261;BME280;61705;46.228;24.812;2023-02-20T13:17:07;97834.63;;;5.86;44.41
51261;BME280;61705;46.228;24.812;2023-02-20T13:19:53;97839.72;;;5.94;44.56
51261;BME280;61705;46.228;24.812;2023-02-20T13:22:21;97830.88;;;5.98;44.47
51261;BME280;61705;46.228;24.812;2023-02-20T13:28:53;97836.81;;;6.06;44.24
51261;BME280;61705;46.228;24.812;2023-02-20T13:31:22;97840.41;;;6.02;44.72
51261;BME280;61705;46.228;24.812;2023-02-20T13:34:25;97853.53;;;6.01;44.54
51261;BME280;61705;46.228;24.812;2023-02-20T13:36:45;97859.50;;;6.09;44.54
51261;BME280;61705;46.228;24.812;2023-02-20T13:49:53;97814.06;;;6.07;45.07
51261;BME280;61705;46.228;24.812;2023-02-20T13:57:53;97776.69;;;6.31;44.69
51261;BME280;61705;46.228;24.812;2023-02-20T14:00:26;97782.00;;;6.28;45.26
51261;BME280;61705;46.228;24.812;2023-02-20T14:03:00;97785.47;;;6.30;45.50
51261;BME280;61705;46.228;24.812;2023-02-20T14:05:30;97764.59;;;6.26;45.62
51261;BME280;61705;46.228;24.812;2023-02-20T14:08:00;97759.22;;;6.30;45.74
51261;BME280;61705;46.228;24.812;2023-02-20T14:10:36;97768.59;;;6.39;46.16
51261;BME280;61705;46.228;24.812;2023-02-20T14:13:19;97772.47;;;6.26;46.08
51261;BME280;61705;46.228;24.812;2023-02-20T14:16:00;97766.53;;;6.17;46.34
51261;BME280;61705;46.228;24.812;2023-02-20T14:18:40;97776.81;;;6.27;46.49
51261;BME280;61705;46.228;24.812;2023-02-20T14:21:20;97777.03;;;6.19;46.29
51261;BME280;61705;46.228;24.812;2023-02-20T14:23:52;97766.22;;;6.30;46.80
51261;BME280;61705;46.228;24.812;2023-02-20T14:26:25;97737.38;;;6.28;46.94
51261;BME280;61705;46.228;24.812;2023-02-20T14:28:56;97742.44;;;6.36;47.06
51261;BME280;61705;46.228;24.812;2023-02-20T14:35:12;97754.81;;;6.31;47.51
51261;BME280;61705;46.228;24.812;2023-02-20T14:40:15;97742.78;;;6.22;48.20
51261;BME280;61705;46.228;24.812;2023-02-20T14:43:00;97737.38;;;6.30;48.05
51261;BME280;61705;46.228;24.812;2023-02-20T14:45:30;97738.09;;;6.35;47.77
51261;BME280;61705;46.228;24.812;2023-02-20T14:48:00;97740.97;;;6.26;47.83
51261;BME280;61705;46.228;24.812;2023-02-20T14:50:39;97720.06;;;6.23;48.42
51261;BME280;61705;46.228;24.812;2023-02-20T14:53:14;97719.09;;;6.25;48.08
51261;BME280;61705;46.228;24.812;2023-02-20T14:55:41;97701.63;;;6.26;47.41
51261;BME280;61705;46.228;24.812;2023-02-20T14:58:18;97711.28;;;6.24;47.72
51261;BME280;61705;46.228;24.812;2023-02-20T15:01:44;97708.66;;;6.24;46.96
51261;BME280;61705;46.228;24.812;2023-02-20T15:04:16;97708.88;;;6.16;47.56
51261;BME280;61705;46.228;24.812;2023-02-20T15:06:44;97711.53;;;6.14;47.30
51261;BME280;61705;46.228;24.812;2023-02-20T15:09:12;97701.53;;;5.96;47.72
51261;BME280;61705;46.228;24.812;2023-02-20T15:11:51;97706.88;;;5.93;48.39
51261;BME280;61705;46.228;24.812;2023-02-20T15:14:26;97712.94;;;5.95;48.08
51261;BME280;61705;46.228;24.812;2023-02-20T15:17:06;97714.84;;;5.88;48.42
51261;BME280;61705;46.228;24.812;2023-02-20T15:22:45;97711.53;;;5.80;49.09
51261;BME280;61705;46.228;24.812;2023-02-20T15:52:06;97725.56;;;5.43;51.12
51261;BME280;61705;46.228;24.812;2023-02-20T15:54:50;97728.00;;;5.51;51.00
51261;BME280;61705;46.228;24.812;2023-02-20T15:57:20;97724.78;;;5.40;51.54
51261;BME280;61705;46.228;24.812;2023-02-20T15:59:49;97715.13;;;5.42;52.09
51261;BME280;61705;46.228;24.812;2023-02-20T16:02:20;97727.50;;;5.35;52.18
51261;BME280;61705;46.228;24.812;2023-02-20T16:04:50;97724.97;;;5.32;52.64
51261;BME280;61705;46.228;24.812;2023-02-20T16:07:20;97718.81;;;5.33;52.50
51261;BME280;61705;46.228;24.812;2023-02-20T16:09:51;97717.94;;;5.34;52.35
51261;BME280;61705;46.228;24.812;2023-02-20T16:12:28;97726.50;;;5.41;52.45
51261;BME280;61705;46.228;24.812;2023-02-20T16:15:29;97733.75;;;5.30;53.12
51261;BME280;61705;46.228;24.812;2023-02-20T16:17:59;97724.09;;;5.32;53.07